Time;durP1;ratioP1;P1;durP2;ratioP2;P2;SDS_P1;SDS_P2;PMS_P1;PMS_P2;Temp;Humidity;BMP_temperature;BMP_pressure;BME280_temperature;BME280_humidity;BME280_pressure;Samples;Min_cycle;Max_cycle;Signal;HPM_P1;HPM_P2
2022/04/28 00:01:49;;;;;;;1.75;1.67;;;20.30;52.80;;;;;;4962042;28;20658;-17
2022/04/28 00:04:15;;;;;;;2.20;2.10;;;20.20;52.70;;;;;;4967369;28;20103;-17
2022/04/28 00:06:41;;;;;;;1.92;1.83;;;20.30;52.80;;;;;;4957953;28;20058;-17
2022/04/28 00:09:06;;;;;;;2.08;1.98;;;20.30;52.80;;;;;;4975477;28;20432;-19
2022/04/28 00:11:32;;;;;;;2.13;1.90;;;20.30;53.50;;;;;;4969247;28;20043;-16
2022/04/28 00:14:01;;;;;;;1.70;1.60;;;20.20;52.80;;;;;;4974021;28;20090;-17
2022/04/28 00:16:26;;;;;;;1.70;1.60;;;20.20;52.90;;;;;;4974634;28;20038;-17
2022/04/28 00:18:52;;;;;;;1.70;1.60;;;20.20;52.70;;;;;;4965882;28;20518;-17
2022/04/28 00:21:18;;;;;;;1.90;1.80;;;20.20;52.70;;;;;;4970479;28;20058;-17
2022/04/28 00:23:43;;;;;;;1.70;1.60;;;20.20;52.90;;;;;;4964032;28;20077;-17
2022/04/28 00:26:09;;;;;;;1.80;1.70;;;20.20;53.10;;;;;;4968503;28;20054;-16
2022/04/28 00:28:34;;;;;;;1.58;1.50;;;20.20;52.90;;;;;;4965048;28;20046;-17
2022/04/28 00:31:00;;;;;;;1.70;1.60;;;20.20;52.90;;;;;;4968320;28;20066;-16
2022/04/28 00:33:27;;;;;;;2.00;1.90;;;20.20;53.10;;;;;;4974661;28;20051;-16
2022/04/28 00:35:53;;;;;;;2.00;1.90;;;20.20;52.90;;;;;;4973829;28;20050;-17
2022/04/28 00:38:19;;;;;;;1.83;1.73;;;20.20;53.70;;;;;;4965255;28;20054;-17
2022/04/28 00:40:44;;;;;;;2.10;2.00;;;20.20;53.10;;;;;;4970652;28;20054;-17
2022/04/28 00:43:19;;;;;;;1.92;1.83;;;20.20;53.00;;;;;;4973312;28;20054;-17
2022/04/28 00:45:49;;;;;;;2.10;2.00;;;20.20;52.90;;;;;;4971975;28;20054;-16
2022/04/28 00:51:01;;;;;;;1.52;1.52;;;20.20;52.80;;;;;;4962641;28;20054;-16
2022/04/28 00:53:29;;;;;;;1.63;1.52;;;20.20;52.90;;;;;;4974503;28;20602;-17
2022/04/28 00:55:55;;;;;;;1.95;1.85;;;20.20;52.90;;;;;;4967802;28;20463;-17
2022/04/28 00:58:20;;;;;;;3.28;1.90;;;20.20;53.20;;;;;;4963253;28;20134;-17
2022/04/28 01:00:46;;;;;;;1.70;1.60;;;20.20;53.00;;;;;;4968731;28;20141;-17
2022/04/28 01:03:12;;;;;;;2.08;1.90;;;20.20;53.10;;;;;;4980544;28;20053;-17
2022/04/28 01:05:38;;;;;;;1.50;1.50;;;20.20;53.10;;;;;;4962162;28;20055;-17
2022/04/28 01:08:04;;;;;;;1.80;1.70;;;20.20;53.20;;;;;;4973646;28;20050;-16
2022/04/28 01:10:29;;;;;;;2.03;2.00;;;20.20;53.10;;;;;;4971224;28;20054;-17
2022/04/28 01:12:55;;;;;;;1.90;1.80;;;20.20;53.10;;;;;;4960819;28;20129;-16
2022/04/28 01:15:21;;;;;;;1.67;1.58;;;20.20;53.10;;;;;;4971661;28;20062;-17
2022/04/28 01:17:47;;;;;;;1.73;1.38;;;20.20;53.00;;;;;;4973514;28;20050;-17
2022/04/28 01:20:12;;;;;;;1.58;1.48;;;20.20;53.00;;;;;;4974478;28;20070;-17
2022/04/28 01:22:38;;;;;;;1.98;1.88;;;20.20;53.10;;;;;;4959919;28;20460;-17
2022/04/28 01:25:08;;;;;;;1.38;1.38;;;20.20;53.20;;;;;;4966342;28;20043;-17
2022/04/28 01:27:37;;;;;;;1.73;1.63;;;20.20;53.00;;;;;;4967557;28;20050;-17
2022/04/28 01:30:04;;;;;;;1.98;1.88;;;20.20;53.10;;;;;;4973215;28;20055;-17
2022/04/28 01:32:29;;;;;;;1.95;1.85;;;20.20;53.20;;;;;;4971402;28;20050;-18
2022/04/28 01:34:55;;;;;;;1.30;1.30;;;20.20;53.20;;;;;;4968737;28;20089;-17
2022/04/28 01:37:21;;;;;;;1.52;1.40;;;20.20;53.30;;;;;;4975674;28;20063;-17
2022/04/28 01:39:46;;;;;;;1.50;1.40;;;20.20;53.10;;;;;;4982440;28;20054;-18
2022/04/28 01:42:12;;;;;;;1.90;1.45;;;20.20;53.80;;;;;;4974067;28;20097;-18
2022/04/28 01:44:37;;;;;;;1.50;1.50;;;20.10;53.20;;;;;;4975682;28;20500;-19
2022/04/28 01:47:03;;;;;;;1.40;1.38;;;20.10;53.20;;;;;;4971984;28;20130;-18
2022/04/28 01:49:29;;;;;;;1.75;1.65;;;20.10;53.30;;;;;;4957625;28;20070;-17
2022/04/28 01:57:23;;;;;;;1.65;1.55;;;20.10;53.20;;;;;;4959258;28;20543;-18
2022/04/28 01:59:49;;;;;;;2.08;1.98;;;20.10;53.20;;;;;;4973172;28;20047;-17
2022/04/28 02:02:14;;;;;;;1.80;1.70;;;20.00;53.30;;;;;;4976994;28;20566;-18
2022/04/28 02:04:40;;;;;;;1.88;1.77;;;20.00;53.30;;;;;;4976933;28;20424;-19
2022/04/28 02:07:06;;;;;;;1.38;1.38;;;20.00;53.30;;;;;;4973152;28;20111;-18
2022/04/28 02:09:32;;;;;;;1.42;1.40;;;20.00;53.30;;;;;;4957632;28;20050;-18
2022/04/28 02:11:58;;;;;;;1.50;1.50;;;20.00;53.30;;;;;;4957066;28;20046;-18
2022/04/28 02:14:23;;;;;;;1.40;1.30;;;20.00;53.60;;;;;;4957886;28;20043;-17
2022/04/28 02:16:49;;;;;;;1.63;1.63;;;20.00;54.10;;;;;;4956877;28;20556;-17
2022/04/28 02:19:15;;;;;;;1.40;1.40;;;20.00;54.10;;;;;;4957597;28;20145;-17
2022/04/28 02:21:40;;;;;;;1.38;1.38;;;20.00;53.40;;;;;;4957438;28;20051;-18
2022/04/28 02:24:07;;;;;;;1.60;1.60;;;20.00;53.40;;;;;;4956934;28;20043;-18
2022/04/28 02:26:32;;;;;;;1.80;1.70;;;20.00;53.30;;;;;;4957746;28;20214;-18
2022/04/28 02:28:58;;;;;;;1.30;1.30;;;20.00;53.40;;;;;;4956897;28;20046;-18
2022/04/28 02:31:24;;;;;;;1.85;1.75;;;19.90;53.60;;;;;;4957385;28;20039;-18
2022/04/28 02:33:49;;;;;;;1.65;1.55;;;19.90;53.40;;;;;;4974644;28;20042;-17
2022/04/28 02:36:15;;;;;;;1.60;1.50;;;20.00;53.40;;;;;;4970958;28;20539;-17
2022/04/28 02:38:40;;;;;;;1.65;1.55;;;20.00;53.40;;;;;;4955821;28;20098;-17
2022/04/28 02:41:06;;;;;;;1.70;1.60;;;20.00;53.60;;;;;;4956716;28;20468;-19
2022/04/28 02:43:32;;;;;;;1.85;1.55;;;19.90;53.50;;;;;;4957322;28;20047;-19
2022/04/28 02:45:58;;;;;;;1.48;1.48;;;19.90;53.70;;;;;;4956542;28;20547;-18
2022/04/28 02:48:24;;;;;;;1.17;1.17;;;19.90;53.80;;;;;;4957119;28;20054;-18
2022/04/28 02:50:50;;;;;;;1.73;1.30;;;20.00;53.70;;;;;;4956874;28;20050;-17
2022/04/28 02:53:16;;;;;;;1.63;1.52;;;20.00;53.60;;;;;;4957550;28;20044;-17
2022/04/28 02:55:41;;;;;;;1.40;1.30;;;19.90;53.60;;;;;;4960921;28;20484;-18
2022/04/28 02:58:08;;;;;;;1.40;1.30;;;19.90;53.60;;;;;;4960669;28;20054;-18
2022/04/28 03:00:36;;;;;;;1.33;1.30;;;19.90;53.80;;;;;;4961012;28;20051;-18
2022/04/28 03:03:01;;;;;;;1.50;1.40;;;19.90;53.60;;;;;;4964702;28;20043;-18
2022/04/28 03:05:27;;;;;;;1.70;1.60;;;20.00;53.70;;;;;;4978999;28;20133;-18
2022/04/28 03:10:53;;;;;;;1.63;1.55;;;19.90;53.40;;;;;;4960986;28;20046;-18
2022/04/28 03:13:20;;;;;;;1.60;1.50;;;19.90;53.50;;;;;;4960322;28;20048;-18
2022/04/28 03:15:46;;;;;;;1.30;1.30;;;19.90;53.60;;;;;;4970643;28;20051;-18
2022/04/28 03:18:16;;;;;;;2.05;1.95;;;19.90;53.40;;;;;;4979780;28;20047;-17
2022/04/28 03:20:42;;;;;;;1.25;1.25;;;19.80;53.60;;;;;;4975247;28;20050;-19
2022/04/28 03:23:08;;;;;;;1.70;1.60;;;19.90;53.60;;;;;;4959864;28;20047;-18
2022/04/28 03:25:34;;;;;;;1.60;1.50;;;19.90;53.50;;;;;;4959935;28;20058;-18
2022/04/28 03:27:59;;;;;;;1.48;1.38;;;19.80;53.40;;;;;;4963758;28;20035;-18
2022/04/28 03:30:25;;;;;;;1.45;1.42;;;19.90;53.60;;;;;;4979710;28;20203;-18
2022/04/28 03:32:51;;;;;;;1.60;1.50;;;19.90;53.40;;;;;;4978980;28;20046;-18
2022/04/28 03:35:17;;;;;;;1.10;1.10;;;19.80;53.60;;;;;;4979399;28;20125;-18
2022/04/28 03:37:49;;;;;;;1.58;1.52;;;19.80;54.00;;;;;;4967850;28;20043;-18
2022/04/28 03:40:16;;;;;;;1.30;1.30;;;19.80;53.70;;;;;;4959728;28;20122;-18
2022/04/28 03:42:42;;;;;;;1.88;1.77;;;19.80;54.00;;;;;;4960410;28;20043;-18
2022/04/28 03:45:08;;;;;;;1.63;1.60;;;19.80;53.80;;;;;;4959506;28;20138;-18
2022/04/28 03:47:35;;;;;;;1.88;1.73;;;19.80;53.50;;;;;;4959916;28;20445;-18
2022/04/28 03:50:01;;;;;;;1.60;1.50;;;19.80;53.70;;;;;;4959705;28;20043;-18
2022/04/28 03:52:26;;;;;;;1.30;1.30;;;19.90;53.70;;;;;;4959855;28;20043;-18
2022/04/28 03:54:52;;;;;;;1.00;1.00;;;19.90;53.50;;;;;;4959279;28;20059;-18
2022/04/28 03:57:17;;;;;;;1.10;1.10;;;19.80;53.40;;;;;;4959865;28;20054;-17
2022/04/28 03:59:43;;;;;;;1.50;1.50;;;19.90;53.60;;;;;;4968325;28;20042;-18
2022/04/28 04:02:09;;;;;;;1.58;1.48;;;19.90;53.60;;;;;;4977083;28;20043;-17
2022/04/28 04:04:34;;;;;;;1.40;1.30;;;19.90;53.60;;;;;;4978254;28;20053;-17
2022/04/28 04:07:00;;;;;;;1.30;1.30;;;19.90;53.60;;;;;;4978388;28;20122;-18
2022/04/28 04:09:25;;;;;;;1.50;1.40;;;19.90;53.70;;;;;;4962079;28;20081;-18
2022/04/28 04:11:51;;;;;;;1.30;1.30;;;19.90;53.60;;;;;;4959077;28;20035;-18
2022/04/28 04:14:17;;;;;;;1.50;1.40;;;19.90;53.90;;;;;;4959674;28;20044;-18
2022/04/28 04:16:42;;;;;;;1.20;1.20;;;19.90;53.60;;;;;;4959506;28;20043;-17
2022/04/28 04:19:08;;;;;;;1.50;1.50;;;19.90;53.80;;;;;;4958462;28;20662;-17
2022/04/28 04:21:34;;;;;;;1.77;1.67;;;19.80;53.50;;;;;;4959437;28;20118;-18
2022/04/28 04:24:00;;;;;;;1.58;1.58;;;19.80;53.50;;;;;;4958640;28;20050;-18
2022/04/28 04:26:25;;;;;;;1.92;1.55;;;19.90;53.80;;;;;;4959038;28;20420;-17
2022/04/28 04:28:51;;;;;;;1.35;1.35;;;19.80;53.80;;;;;;4958836;28;20652;-18
2022/04/28 04:34:00;;;;;;;1.20;1.20;;;19.80;53.90;;;;;;4958606;28;20069;-18
2022/04/28 04:36:26;;;;;;;1.42;1.42;;;19.80;54.00;;;;;;4975549;28;20129;-18
2022/04/28 04:38:52;;;;;;;1.58;1.58;;;19.80;53.80;;;;;;4977744;28;20047;-18
2022/04/28 04:41:17;;;;;;;1.83;1.73;;;19.80;54.10;;;;;;4978370;28;20043;-17
2022/04/28 04:43:43;;;;;;;1.33;1.23;;;19.80;54.00;;;;;;4973523;28;20483;-18
2022/04/28 04:46:08;;;;;;;1.63;1.60;;;19.80;53.80;;;;;;4958480;28;20107;-18
2022/04/28 04:48:34;;;;;;;1.52;1.52;;;19.80;53.80;;;;;;4958856;28;20404;-18
2022/04/28 04:51:00;;;;;;;1.30;1.30;;;19.80;53.90;;;;;;4956886;28;20043;-18
2022/04/28 04:53:25;;;;;;;1.60;1.50;;;19.80;53.90;;;;;;4958810;28;20145;-19
2022/04/28 04:55:51;;;;;;;1.30;1.20;;;19.80;54.20;;;;;;4959077;28;20138;-18
2022/04/28 04:58:17;;;;;;;1.45;1.35;;;19.80;53.90;;;;;;4958290;28;20139;-18
2022/04/28 05:00:42;;;;;;;1.50;1.40;;;19.80;53.90;;;;;;4958894;28;20043;-18
2022/04/28 05:03:08;;;;;;;1.40;1.40;;;19.80;54.00;;;;;;4964316;28;20053;-18
2022/04/28 05:05:33;;;;;;;1.50;1.40;;;19.80;53.70;;;;;;4978021;28;20043;-17
2022/04/28 05:07:59;;;;;;;1.17;1.17;;;19.80;54.10;;;;;;4977162;28;20105;-17
2022/04/28 05:10:25;;;;;;;1.15;1.15;;;19.80;53.80;;;;;;4977953;28;20066;-19
2022/04/28 05:12:50;;;;;;;1.40;1.35;;;19.80;53.90;;;;;;4966126;28;20043;-18
2022/04/28 05:15:16;;;;;;;1.27;1.17;;;19.80;53.70;;;;;;4958892;28;20050;-18
2022/04/28 05:17:41;;;;;;;1.67;1.58;;;19.80;53.70;;;;;;4975470;28;20070;-19
2022/04/28 05:20:07;;;;;;;1.70;1.60;;;19.70;53.30;;;;;;4630233;28;10000925;-17
2022/04/28 05:22:33;;;;;;;1.70;1.60;;;19.80;53.70;;;;;;4967150;28;20055;-18
2022/04/28 05:24:59;;;;;;;2.33;2.22;;;19.70;53.80;;;;;;4972096;28;20039;-18
2022/04/28 05:27:25;;;;;;;1.70;1.60;;;19.70;53.80;;;;;;4969303;28;20046;-18
2022/04/28 05:29:51;;;;;;;1.85;1.75;;;19.70;53.80;;;;;;4965755;28;20043;-17
2022/04/28 05:32:16;;;;;;;2.50;2.30;;;19.70;53.70;;;;;;4971394;28;20084;-17
2022/04/28 05:34:42;;;;;;;2.55;2.45;;;19.70;53.80;;;;;;4971618;28;20137;-18
2022/04/28 05:37:07;;;;;;;2.53;2.42;;;19.60;53.80;;;;;;4969154;28;20117;-18
2022/04/28 05:39:33;;;;;;;2.85;2.10;;;19.70;53.80;;;;;;4973213;28;20086;-16
2022/04/28 05:41:59;;;;;;;2.20;2.10;;;19.60;53.70;;;;;;4969145;28;20034;-16
2022/04/28 05:47:08;;;;;;;2.05;1.95;;;19.60;53.70;;;;;;4970553;28;20130;-16
2022/04/28 05:49:34;;;;;;;2.72;2.33;;;19.60;53.70;;;;;;4993932;28;20126;-16
2022/04/28 05:52:01;;;;;;;2.50;2.40;;;19.60;54.30;;;;;;4970522;28;20125;-17
2022/04/28 05:54:26;;;;;;;2.53;2.42;;;19.60;53.60;;;;;;4969104;28;20518;-16
2022/04/28 05:56:52;;;;;;;3.13;2.92;;;19.60;53.50;;;;;;4972439;28;20542;-17
2022/04/28 05:59:17;;;;;;;2.75;2.55;;;19.60;53.50;;;;;;4972865;28;20051;-17
2022/04/28 06:01:43;;;;;;;2.58;2.47;;;19.50;53.40;;;;;;4973065;28;20061;-16
2022/04/28 06:04:09;;;;;;;2.92;2.72;;;19.50;53.50;;;;;;4969265;28;20365;-16
2022/04/28 06:06:35;;;;;;;2.60;2.40;;;19.50;53.40;;;;;;4970908;28;20623;-17
2022/04/28 06:09:00;;;;;;;4.22;2.60;;;19.50;53.50;;;;;;4971057;28;20060;-17
2022/04/28 06:11:26;;;;;;;3.10;2.90;;;19.50;53.40;;;;;;4970669;28;20122;-17
2022/04/28 06:13:52;;;;;;;3.22;3.03;;;19.50;53.40;;;;;;4972499;28;20053;-18
2022/04/28 06:16:17;;;;;;;5.35;2.80;;;19.50;53.40;;;;;;4971152;28;20074;-16
2022/04/28 06:18:43;;;;;;;3.08;2.83;;;19.50;53.40;;;;;;4970840;28;20610;-16
2022/04/28 06:21:09;;;;;;;2.95;2.75;;;19.50;53.30;;;;;;4973843;28;20050;-17
2022/04/28 06:23:35;;;;;;;3.47;3.28;;;19.50;53.10;;;;;;4972436;28;20054;-16
2022/04/28 06:26:01;;;;;;;4.70;4.38;;;19.50;53.00;;;;;;4972200;28;20626;-16
2022/04/28 06:28:27;;;;;;;5.57;5.18;;;19.20;52.60;;;;;;4966929;28;20057;-16
2022/04/28 06:30:52;;;;;;;6.68;6.05;;;19.10;52.40;;;;;;4970453;28;20464;-16
2022/04/28 06:33:21;;;;;;;7.20;6.60;;;19.10;52.20;;;;;;4969014;28;20076;-16
2022/04/28 06:35:46;;;;;;;7.40;6.80;;;19.00;51.80;;;;;;4972526;28;20538;-16
2022/04/28 06:38:12;;;;;;;7.57;6.97;;;18.80;51.90;;;;;;4971779;28;20057;-18
2022/04/28 06:40:38;;;;;;;7.63;6.78;;;18.80;52.00;;;;;;4971026;28;20132;-17
2022/04/28 06:43:04;;;;;;;7.38;6.65;;;18.80;52.10;;;;;;4962306;28;20552;-17
2022/04/28 06:45:29;;;;;;;6.50;5.90;;;18.70;52.10;;;;;;4954533;28;20039;-17
2022/04/28 06:47:55;;;;;;;5.88;5.47;;;18.80;52.00;;;;;;4957089;28;20097;-17
2022/04/28 06:50:20;;;;;;;6.18;5.57;;;18.90;51.50;;;;;;4964767;28;20041;-18
2022/04/28 06:52:46;;;;;;;11.40;5.00;;;18.90;51.60;;;;;;4962149;28;20055;-17
2022/04/28 06:55:12;;;;;;;5.80;5.40;;;19.00;51.80;;;;;;4955409;28;20051;-17
2022/04/28 06:57:37;;;;;;;5.20;4.80;;;19.10;51.40;;;;;;4956986;28;20043;-17
2022/04/28 07:00:04;;;;;;;5.63;5.22;;;19.20;51.30;;;;;;4960578;28;20034;-19
2022/04/28 07:02:30;;;;;;;4.90;4.60;;;19.20;51.30;;;;;;4976066;28;20047;-17
2022/04/28 07:04:56;;;;;;;5.40;4.55;;;19.20;51.30;;;;;;4973130;28;20054;-17
2022/04/28 07:07:22;;;;;;;5.55;5.13;;;19.20;51.30;;;;;;4961155;28;20034;-17
2022/04/28 07:09:48;;;;;;;7.25;5.15;;;19.20;51.30;;;;;;4957061;28;20044;-17
2022/04/28 07:12:14;;;;;;;4.85;4.45;;;19.20;51.40;;;;;;4964421;28;20102;-17
2022/04/28 07:14:39;;;;;;;4.90;4.57;;;19.30;51.40;;;;;;4976191;28;20533;-19
2022/04/28 07:17:05;;;;;;;4.65;4.25;;;19.30;51.40;;;;;;4959228;28;20047;-17
2022/04/28 07:19:30;;;;;;;3.97;3.67;;;19.30;51.40;;;;;;4956953;28;20098;-18
2022/04/28 07:21:56;;;;;;;3.88;3.58;;;19.30;51.50;;;;;;4956817;28;20047;-17
2022/04/28 07:24:22;;;;;;;4.60;4.20;;;19.30;51.50;;;;;;4963680;28;20043;-17
2022/04/28 07:26:47;;;;;;;3.72;3.53;;;19.30;52.00;;;;;;4976187;28;20053;-17
2022/04/28 07:29:13;;;;;;;3.65;3.45;;;19.30;51.50;;;;;;4957627;28;20043;-18
2022/04/28 07:31:38;;;;;;;3.88;3.63;;;19.30;51.60;;;;;;4956901;28;20059;-17
2022/04/28 07:34:04;;;;;;;3.97;3.78;;;19.30;51.60;;;;;;4956102;28;20048;-18
2022/04/28 07:36:30;;;;;;;4.70;3.80;;;19.30;51.60;;;;;;4964754;28;20047;-18
2022/04/28 07:38:55;;;;;;;4.22;3.92;;;19.30;51.80;;;;;;4956713;28;20043;-18
2022/04/28 07:41:21;;;;;;;4.65;3.85;;;19.30;51.80;;;;;;4959359;28;20111;-18
2022/04/28 07:43:47;;;;;;;4.50;3.58;;;19.30;51.90;;;;;;4960369;28;20039;-18
2022/04/28 07:46:12;;;;;;;3.10;2.90;;;19.30;51.80;;;;;;4959728;28;20408;-17
2022/04/28 07:48:38;;;;;;;3.78;3.47;;;19.30;51.80;;;;;;4959975;28;20106;-18
2022/04/28 07:51:04;;;;;;;3.17;2.90;;;19.30;51.90;;;;;;4959557;28;20043;-18
2022/04/28 07:53:31;;;;;;;3.42;3.13;;;19.30;51.90;;;;;;4978189;28;20047;-17
2022/04/28 07:56:17;;;;;;;3.30;3.00;;;19.30;52.00;;;;;;4979255;28;20054;-18
2022/04/28 07:58:43;;;;;;;3.40;3.20;;;19.30;52.00;;;;;;4978755;28;20043;-17
2022/04/28 08:01:09;;;;;;;3.60;2.85;;;19.30;52.00;;;;;;4972096;28;20043;-17
2022/04/28 08:03:35;;;;;;;3.20;3.00;;;19.30;52.20;;;;;;4959841;28;20076;-19
2022/04/28 08:06:01;;;;;;;3.22;2.83;;;19.30;52.10;;;;;;4959974;28;20043;-18
2022/04/28 08:08:27;;;;;;;3.25;3.05;;;19.30;52.30;;;;;;4958980;28;20130;-17
2022/04/28 08:10:53;;;;;;;2.85;2.65;;;19.30;52.30;;;;;;4960129;28;20069;-18
2022/04/28 08:13:19;;;;;;;3.03;2.83;;;19.30;52.30;;;;;;4959245;28;20035;-18
2022/04/28 08:15:44;;;;;;;2.53;2.42;;;19.30;52.20;;;;;;4975543;28;20050;-19
2022/04/28 08:18:10;;;;;;;3.05;2.63;;;19.30;52.20;;;;;;4973262;28;20035;-18
2022/04/28 08:20:36;;;;;;;2.72;2.60;;;19.30;52.40;;;;;;4959589;28;20097;-17
2022/04/28 08:23:01;;;;;;;3.00;2.80;;;19.30;52.40;;;;;;4958044;28;20051;-18
2022/04/28 08:25:27;;;;;;;2.60;2.45;;;19.30;52.30;;;;;;4971835;28;20047;-17
2022/04/28 08:27:52;;;;;;;2.70;2.50;;;19.30;52.30;;;;;;4978782;28;20042;-18
2022/04/28 08:30:18;;;;;;;2.42;2.22;;;19.30;52.40;;;;;;4978759;28;20042;-17
2022/04/28 08:32:44;;;;;;;2.70;2.50;;;19.30;52.50;;;;;;4974372;28;20090;-17
2022/04/28 08:35:09;;;;;;;2.45;2.35;;;19.30;52.50;;;;;;4964957;28;20055;-17
2022/04/28 08:37:36;;;;;;;2.70;2.50;;;19.30;52.50;;;;;;4972929;28;20102;-18
2022/04/28 08:40:02;;;;;;;2.70;2.50;;;19.30;52.60;;;;;;4959175;28;20047;-19
2022/04/28 08:42:28;;;;;;;2.53;2.33;;;19.30;52.60;;;;;;4958757;28;20070;-18
2022/04/28 08:44:55;;;;;;;2.30;2.20;;;19.30;52.60;;;;;;4989943;28;20046;-17
2022/04/28 08:47:21;;;;;;;2.58;2.38;;;19.40;52.70;;;;;;4988298;28;20043;-18
2022/04/28 08:49:47;;;;;;;2.20;2.10;;;19.40;52.70;;;;;;4959051;28;20047;-18
2022/04/28 08:52:13;;;;;;;2.28;2.17;;;19.40;52.80;;;;;;4988934;28;20043;-17
2022/04/28 08:54:39;;;;;;;2.28;2.17;;;19.30;52.60;;;;;;4958746;28;20393;-17
2022/04/28 08:57:05;;;;;;;2.40;2.15;;;19.30;52.90;;;;;;4959007;28;20563;-17
2022/04/28 08:59:30;;;;;;;2.20;2.00;;;19.40;52.80;;;;;;4958234;28;20433;-17
2022/04/28 09:01:56;;;;;;;3.28;2.35;;;19.40;52.60;;;;;;4957652;28;20390;-17
2022/04/28 09:04:23;;;;;;;3.85;2.35;;;19.40;52.70;;;;;;4958181;28;20039;-17
2022/04/28 09:06:50;;;;;;;2.30;2.20;;;19.30;52.70;;;;;;4958631;28;20039;-17
2022/04/28 09:09:17;;;;;;;2.13;1.90;;;19.40;52.90;;;;;;4959291;28;20492;-17
2022/04/28 09:11:43;;;;;;;2.08;1.98;;;19.40;52.90;;;;;;4977963;28;20049;-18
2022/04/28 09:14:10;;;;;;;2.22;2.13;;;19.40;52.90;;;;;;4969480;28;20051;-18
2022/04/28 09:16:43;;;;;;;2.35;2.17;;;19.40;52.90;;;;;;4977847;28;20038;-17
2022/04/28 09:19:10;;;;;;;2.00;1.90;;;19.50;52.90;;;;;;4962576;28;20602;-17
2022/04/28 09:21:36;;;;;;;2.30;2.20;;;19.50;52.70;;;;;;4958466;28;20043;-17
2022/04/28 09:24:02;;;;;;;2.40;2.17;;;19.50;52.70;;;;;;4956966;28;20130;-17
2022/04/28 09:26:28;;;;;;;2.33;2.10;;;19.50;52.80;;;;;;4957977;28;20397;-17
2022/04/28 09:28:54;;;;;;;2.17;2.08;;;19.50;52.80;;;;;;4957000;28;20453;-17
2022/04/28 09:31:19;;;;;;;2.13;2.03;;;19.50;52.80;;;;;;4958368;28;20047;-18
2022/04/28 09:33:46;;;;;;;2.03;1.80;;;19.50;52.80;;;;;;4956929;28;20051;-17
2022/04/28 09:36:12;;;;;;;2.28;2.17;;;19.50;52.70;;;;;;4970561;28;20049;-18
2022/04/28 09:38:38;;;;;;;2.38;2.15;;;19.50;52.50;;;;;;4964416;28;20059;-18
2022/04/28 09:43:52;;;;;;;2.17;2.08;;;19.60;52.50;;;;;;4956667;28;20045;-17
2022/04/28 09:46:22;;;;;;;2.45;2.25;;;19.60;52.30;;;;;;4955864;28;20126;-17
2022/04/28 09:48:49;;;;;;;1.98;1.88;;;19.60;52.30;;;;;;4957959;28;20039;-17
2022/04/28 09:51:15;;;;;;;2.13;2.03;;;19.60;52.70;;;;;;4969642;28;20043;-17
2022/04/28 09:53:41;;;;;;;1.83;1.70;;;19.60;52.70;;;;;;4955576;28;20047;-17
2022/04/28 09:56:07;;;;;;;1.90;1.80;;;19.60;52.60;;;;;;4956401;28;20105;-17
2022/04/28 09:58:32;;;;;;;1.92;1.83;;;19.60;53.20;;;;;;4957212;28;20431;-17
2022/04/28 10:01:03;;;;;;;2.15;2.05;;;19.60;52.60;;;;;;4957757;28;20039;-18
2022/04/28 10:03:33;;;;;;;2.10;2.00;;;19.60;52.60;;;;;;4956246;28;20043;-17
2022/04/28 10:05:59;;;;;;;2.10;2.00;;;19.60;52.60;;;;;;4957411;28;20134;-17
2022/04/28 10:08:25;;;;;;;2.03;1.92;;;19.60;52.60;;;;;;4956838;28;20129;-17
2022/04/28 10:10:53;;;;;;;2.30;2.20;;;19.60;52.80;;;;;;4957943;28;20070;-17
2022/04/28 10:13:19;;;;;;;2.30;2.20;;;19.60;52.50;;;;;;4956958;28;20050;-17
2022/04/28 10:15:45;;;;;;;1.95;1.85;;;19.70;52.70;;;;;;4972119;28;20043;-17
2022/04/28 10:18:11;;;;;;;1.77;1.67;;;19.70;52.70;;;;;;4971231;28;20444;-17
2022/04/28 10:20:47;;;;;;;2.03;1.83;;;19.60;52.70;;;;;;4955714;28;20047;-18
2022/04/28 10:23:13;;;;;;;2.60;1.83;;;19.60;52.80;;;;;;4956801;28;20063;-18
2022/04/28 10:34:09;;;;;;;;;;;19.80;52.60;;;;;;4961081;28;20058;-17
2022/04/28 10:36:51;;;;;;;1.55;1.45;;;19.80;52.50;;;;;;4960481;28;20403;-17
2022/04/28 10:39:31;;;;;;;1.58;1.48;;;19.80;52.60;;;;;;4957862;28;20071;-17
2022/04/28 10:41:57;;;;;;;1.88;1.77;;;19.90;52.40;;;;;;4960501;28;20047;-17
2022/04/28 10:44:22;;;;;;;1.58;1.48;;;19.90;52.40;;;;;;4961122;28;20050;-17
2022/04/28 10:46:59;;;;;;;1.33;1.33;;;20.00;52.30;;;;;;4960048;28;20554;-18
2022/04/28 10:49:25;;;;;;;1.45;1.35;;;20.00;52.30;;;;;;4959347;28;20050;-17
2022/04/28 10:51:56;;;;;;;1.38;1.38;;;20.00;52.40;;;;;;4962068;28;20058;-18
2022/04/28 10:54:23;;;;;;;1.35;1.35;;;20.00;52.50;;;;;;4961085;28;20213;-17
2022/04/28 10:56:56;;;;;;;1.40;1.40;;;20.10;52.50;;;;;;4960640;28;20062;-17
2022/04/28 10:59:29;;;;;;;1.00;1.00;;;20.10;52.50;;;;;;4958947;28;20051;-17
2022/04/28 11:01:55;;;;;;;1.40;1.30;;;20.20;52.40;;;;;;4961529;28;20089;-18
2022/04/28 11:04:24;;;;;;;1.20;1.20;;;20.20;53.10;;;;;;4958004;28;20237;-18
2022/04/28 11:06:57;;;;;;;1.10;1.00;;;20.20;52.30;;;;;;4961368;28;20479;-18
2022/04/28 11:09:33;;;;;;;1.10;1.10;;;20.20;52.30;;;;;;4958999;28;20125;-18
2022/04/28 11:12:10;;;;;;;1.13;1.13;;;20.20;52.30;;;;;;4703398;28;10001221;-20
2022/04/28 11:15:06;;;;;;;2.22;1.45;;;20.20;52.40;;;;;;4959083;28;20256;-18
2022/04/28 11:17:33;;;;;;;1.60;1.50;;;20.20;52.40;;;;;;4962929;28;20538;-18
2022/04/28 11:20:05;;;;;;;1.48;1.48;;;20.20;52.40;;;;;;4959689;28;20066;-18
2022/04/28 11:22:30;;;;;;;1.45;1.33;;;20.30;52.30;;;;;;4961989;28;20054;-18
2022/04/28 11:25:02;;;;;;;1.30;1.20;;;20.20;52.50;;;;;;4963067;28;20038;-18
2022/04/28 11:27:27;;;;;;;1.00;1.00;;;20.30;52.30;;;;;;4962435;28;20177;-18
2022/04/28 11:29:57;;;;;;;1.20;1.20;;;20.30;52.40;;;;;;4961399;28;20174;-18
2022/04/28 11:32:23;;;;;;;1.33;1.33;;;20.20;52.50;;;;;;4961627;28;20109;-18
2022/04/28 11:34:50;;;;;;;1.58;1.20;;;20.20;52.50;;;;;;4961467;28;20047;-18
2022/04/28 11:37:24;;;;;;;1.33;1.23;;;20.30;52.50;;;;;;4962198;28;20046;-21
2022/04/28 11:39:51;;;;;;;1.05;1.05;;;20.40;52.40;;;;;;4961516;28;20055;-18
2022/04/28 11:42:16;;;;;;;1.27;1.20;;;20.40;52.20;;;;;;4963530;28;20700;-19
2022/04/28 11:44:46;;;;;;;1.20;1.20;;;20.50;52.50;;;;;;4963944;28;20057;-17
2022/04/28 11:47:11;;;;;;;1.33;1.33;;;20.60;52.40;;;;;;4975427;28;20081;-17
2022/04/28 11:49:40;;;;;;;1.20;1.10;;;20.60;52.20;;;;;;4974604;28;20039;-17
2022/04/28 11:52:26;;;;;;;1.13;1.10;;;20.50;52.20;;;;;;4977952;28;20038;-16
2022/04/28 11:55:12;;;;;;;1.20;1.10;;;20.50;52.30;;;;;;4978448;28;20050;-16
2022/04/28 11:57:39;;;;;;;1.02;1.02;;;20.50;52.50;;;;;;4978348;28;20133;-17
2022/04/28 12:00:09;;;;;;;1.08;1.00;;;20.40;52.60;;;;;;4970397;28;20043;-16
2022/04/28 12:02:37;;;;;;;1.23;1.23;;;20.40;52.60;;;;;;4959156;28;20050;-16
2022/04/28 12:05:10;;;;;;;1.10;1.10;;;20.40;52.60;;;;;;4959796;28;20138;-16
2022/04/28 12:07:36;;;;;;;1.13;1.10;;;20.40;52.70;;;;;;4958492;28;20043;-17
2022/04/28 12:15:31;;;;;;;1.00;1.00;;;20.40;52.70;;;;;;4956916;28;20062;-16
2022/04/28 12:20:53;;;;;;;1.13;1.00;;;20.40;52.70;;;;;;4972345;28;20459;-16
2022/04/28 12:23:29;;;;;;;1.90;0.88;;;20.40;52.60;;;;;;4977422;28;20511;-16
2022/04/28 12:26:07;;;;;;;1.13;1.13;;;20.40;52.60;;;;;;4978131;28;20045;-17
2022/04/28 12:28:34;;;;;;;1.13;1.08;;;20.40;52.70;;;;;;4963929;28;20097;-17
2022/04/28 12:31:02;;;;;;;1.00;1.00;;;20.40;52.70;;;;;;4959525;28;20043;-16
2022/04/28 12:33:33;;;;;;;1.08;0.98;;;20.40;52.60;;;;;;4989258;28;20469;-16
2022/04/28 12:35:59;;;;;;;1.10;1.10;;;20.50;52.50;;;;;;4971259;28;20046;-16
2022/04/28 12:38:30;;;;;;;0.90;0.90;;;20.40;52.60;;;;;;4977672;28;20050;-16
2022/04/28 12:40:56;;;;;;;0.80;0.80;;;20.40;52.60;;;;;;4963214;28;20051;-16
2022/04/28 12:43:38;;;;;;;1.17;1.00;;;20.40;52.60;;;;;;4958484;28;20054;-17
2022/04/28 12:46:05;;;;;;;1.10;1.10;;;20.40;52.70;;;;;;4959163;28;20039;-16
2022/04/28 12:48:32;;;;;;;1.10;1.10;;;20.40;52.70;;;;;;4958170;28;20094;-16
2022/04/28 12:51:11;;;;;;;0.98;0.98;;;20.50;52.70;;;;;;4969096;28;20066;-16
2022/04/28 12:53:37;;;;;;;0.98;0.98;;;20.50;52.70;;;;;;4958280;28;20051;-17
2022/04/28 12:56:07;;;;;;;1.05;0.85;;;20.50;52.70;;;;;;4959022;28;20055;-16
2022/04/28 12:58:46;;;;;;;0.90;0.90;;;20.50;52.70;;;;;;4958197;28;20568;-16
2022/04/28 13:01:19;;;;;;;1.10;1.10;;;20.50;52.80;;;;;;4958876;28;20047;-16
2022/04/28 13:03:56;;;;;;;1.10;1.10;;;20.40;52.70;;;;;;4958242;28;20133;-16
2022/04/28 13:06:25;;;;;;;1.08;1.08;;;20.50;52.90;;;;;;4958244;28;20050;-19
2022/04/28 13:08:51;;;;;;;0.90;0.90;;;20.50;52.80;;;;;;4958926;28;20051;-18
2022/04/28 13:11:21;;;;;;;1.10;1.10;;;20.50;52.70;;;;;;4958507;28;20050;-17
2022/04/28 13:13:47;;;;;;;1.10;1.00;;;20.50;52.70;;;;;;4956966;28;20101;-17
2022/04/28 13:16:13;;;;;;;1.20;1.20;;;20.50;52.70;;;;;;4973304;28;20039;-17
2022/04/28 13:18:38;;;;;;;1.02;1.02;;;20.50;52.70;;;;;;4957970;28;20141;-17
2022/04/28 13:21:04;;;;;;;1.10;1.10;;;20.50;52.70;;;;;;4958522;28;20049;-17
2022/04/28 13:23:29;;;;;;;1.20;1.20;;;20.50;52.70;;;;;;4957843;28;20055;-17